createdAt,value
2023-04-07T00:04:29.000Z,986.16
2023-04-07T00:09:23.000Z,986.14
2023-04-07T00:14:16.000Z,986.06
2023-04-07T00:19:10.000Z,986.03
2023-04-07T00:24:04.000Z,986.02
2023-04-07T00:28:58.000Z,986.02
2023-04-07T00:33:50.000Z,985.93
2023-04-07T00:38:43.000Z,985.91
2023-04-07T00:43:37.000Z,985.86
2023-04-07T00:48:28.000Z,985.82
2023-04-07T00:53:25.000Z,985.71
2023-04-07T00:58:12.000Z,985.66
2023-04-07T01:03:06.000Z,985.55
2023-04-07T01:08:00.000Z,985.59
2023-04-07T01:12:54.000Z,985.60
2023-04-07T01:17:48.000Z,985.59
2023-04-07T01:22:42.000Z,985.46
2023-04-07T01:27:38.000Z,985.39
2023-04-07T01:32:28.000Z,985.30
2023-04-07T01:37:21.000Z,985.31
2023-04-07T01:42:15.000Z,985.32
2023-04-07T01:47:09.000Z,985.25
2023-04-07T01:52:03.000Z,985.28
2023-04-07T01:56:57.000Z,985.20
2023-04-07T02:01:51.000Z,985.30
2023-04-07T02:06:45.000Z,985.23
2023-04-07T02:11:38.000Z,985.31
2023-04-07T02:16:29.000Z,985.34
2023-04-07T02:21:24.000Z,985.22
2023-04-07T02:26:16.000Z,985.25
2023-04-07T02:31:10.000Z,985.24
2023-04-07T02:36:04.000Z,985.26
2023-04-07T02:40:58.000Z,985.21
2023-04-07T02:45:52.000Z,985.19
2023-04-07T02:50:46.000Z,985.14
2023-04-07T02:55:41.000Z,985.14
2023-04-07T03:00:35.000Z,985.21
2023-04-07T03:05:29.000Z,985.19
2023-04-07T03:10:23.000Z,985.16
2023-04-07T03:15:17.000Z,985.13
2023-04-07T03:20:10.000Z,985.19
2023-04-07T03:25:04.000Z,985.20
2023-04-07T03:29:58.000Z,985.18
2023-04-07T03:34:52.000Z,985.20
2023-04-07T03:39:46.000Z,985.14
2023-04-07T03:44:40.000Z,985.17
2023-04-07T03:49:34.000Z,985.21
2023-04-07T03:54:28.000Z,985.17
2023-04-07T03:59:22.000Z,985.22
2023-04-07T04:04:16.000Z,985.18
2023-04-07T04:09:10.000Z,985.24
2023-04-07T04:14:04.000Z,985.25
2023-04-07T04:18:58.000Z,985.23
2023-04-07T04:23:52.000Z,985.27
2023-04-07T04:28:46.000Z,985.25
2023-04-07T04:33:40.000Z,985.32
2023-04-07T04:38:33.000Z,985.36
2023-04-07T04:43:28.000Z,985.38
2023-04-07T04:48:19.000Z,985.38
2023-04-07T04:53:12.000Z,985.37
2023-04-07T04:58:06.000Z,985.46
2023-04-07T05:03:00.000Z,985.46
2023-04-07T05:07:54.000Z,985.49
2023-04-07T05:12:49.000Z,985.53
2023-04-07T05:17:43.000Z,985.55
2023-04-07T05:22:37.000Z,985.55
2023-04-07T05:27:30.000Z,985.54
2023-04-07T05:32:26.000Z,985.59
2023-04-07T05:37:16.000Z,985.64
2023-04-07T05:42:13.000Z,985.64
2023-04-07T05:47:03.000Z,985.65
2023-04-07T05:51:57.000Z,985.71
2023-04-07T05:56:51.000Z,985.66
2023-04-07T06:01:45.000Z,985.81
2023-04-07T06:06:39.000Z,985.87
2023-04-07T06:11:32.000Z,985.82
2023-04-07T06:16:26.000Z,985.96
2023-04-07T06:21:18.000Z,985.84
2023-04-07T06:26:12.000Z,985.99
2023-04-07T06:31:06.000Z,985.98
2023-04-07T06:36:01.000Z,985.99
2023-04-07T06:40:55.000Z,986.07
2023-04-07T06:45:50.000Z,986.11
2023-04-07T06:50:44.000Z,986.11
2023-04-07T06:55:38.000Z,986.17
2023-04-07T07:00:32.000Z,986.21
2023-04-07T07:05:26.000Z,986.19
2023-04-07T07:10:20.000Z,986.21
2023-04-07T07:15:14.000Z,986.21
2023-04-07T07:20:08.000Z,986.30
2023-04-07T07:25:00.000Z,986.43
2023-04-07T07:29:55.000Z,986.37
2023-04-07T07:34:49.000Z,986.49
2023-04-07T07:39:43.000Z,986.49
2023-04-07T07:44:37.000Z,986.54
2023-04-07T07:49:32.000Z,986.51
2023-04-07T07:54:26.000Z,986.58
2023-04-07T07:59:21.000Z,986.66
2023-04-07T08:04:15.000Z,986.66
2023-04-07T08:09:09.000Z,986.67
2023-04-07T08:14:04.000Z,986.90
2023-04-07T08:18:57.000Z,986.90
2023-04-07T08:23:51.000Z,986.89
2023-04-07T08:28:45.000Z,986.92
2023-04-07T08:33:39.000Z,987.01
2023-04-07T08:38:36.000Z,987.06
2023-04-07T08:43:28.000Z,987.08
2023-04-07T08:48:22.000Z,987.12
2023-04-07T08:53:16.000Z,987.11
2023-04-07T08:58:11.000Z,987.21
2023-04-07T09:03:05.000Z,987.28
2023-04-07T09:07:59.000Z,987.22
2023-04-07T09:12:53.000Z,987.17
2023-04-07T09:17:48.000Z,987.19
2023-04-07T09:22:42.000Z,987.25
2023-04-07T09:27:37.000Z,987.17
2023-04-07T09:32:31.000Z,987.16
2023-04-07T09:37:26.000Z,987.21
2023-04-07T09:42:18.000Z,987.10
2023-04-07T09:47:11.000Z,987.06
2023-04-07T09:52:05.000Z,987.13
2023-04-07T09:57:00.000Z,987.02
2023-04-07T10:01:52.000Z,987.01
2023-04-07T10:06:47.000Z,987.01
2023-04-07T10:11:42.000Z,986.96
2023-04-07T10:16:37.000Z,986.99
2023-04-07T10:21:31.000Z,987.01
2023-04-07T10:26:26.000Z,987.06
2023-04-07T10:31:20.000Z,987.06
2023-04-07T10:36:14.000Z,987.16
2023-04-07T10:41:09.000Z,987.27
2023-04-07T10:46:03.000Z,987.26
2023-04-07T10:50:57.000Z,987.29
2023-04-07T10:55:51.000Z,987.37
2023-04-07T11:00:46.000Z,987.44
2023-04-07T11:05:40.000Z,987.58
2023-04-07T11:10:33.000Z,987.53
2023-04-07T11:15:28.000Z,987.53
2023-04-07T11:20:22.000Z,987.46
2023-04-07T11:25:17.000Z,987.60
2023-04-07T11:30:11.000Z,987.54
2023-04-07T11:35:05.000Z,987.51
2023-04-07T11:40:00.000Z,987.64
2023-04-07T11:44:54.000Z,987.70
2023-04-07T11:49:48.000Z,987.68
2023-04-07T11:54:42.000Z,987.61
2023-04-07T11:59:36.000Z,987.69
2023-04-07T12:04:30.000Z,987.66
2023-04-07T12:09:24.000Z,987.72
2023-04-07T12:14:18.000Z,987.79
2023-04-07T12:19:12.000Z,987.77
2023-04-07T12:24:07.000Z,987.76
2023-04-07T12:29:01.000Z,987.78
2023-04-07T12:33:55.000Z,987.87
2023-04-07T12:38:50.000Z,987.88
2023-04-07T12:43:44.000Z,987.93
2023-04-07T12:48:39.000Z,987.90
2023-04-07T12:53:32.000Z,988.04
2023-04-07T12:58:28.000Z,988.02
2023-04-07T13:03:19.000Z,988.06
2023-04-07T13:08:12.000Z,988.05
2023-04-07T13:13:06.000Z,988.17
2023-04-07T13:18:00.000Z,988.14
2023-04-07T13:22:54.000Z,988.13
2023-04-07T13:27:48.000Z,988.12
2023-04-07T13:32:42.000Z,988.12
2023-04-07T13:37:37.000Z,988.07
2023-04-07T13:42:31.000Z,988.08
2023-04-07T13:47:25.000Z,988.11
2023-04-07T13:52:20.000Z,988.05
2023-04-07T13:57:14.000Z,988.05
2023-04-07T14:02:09.000Z,988.05
2023-04-07T14:07:04.000Z,988.03
2023-04-07T14:11:58.000Z,987.99
2023-04-07T14:16:52.000Z,988.08
2023-04-07T14:21:46.000Z,988.00
2023-04-07T14:26:40.000Z,988.12
2023-04-07T14:31:34.000Z,988.15
2023-04-07T14:36:28.000Z,988.10
2023-04-07T14:41:22.000Z,988.08
2023-04-07T14:46:16.000Z,988.07
2023-04-07T14:51:10.000Z,988.08
2023-04-07T14:56:04.000Z,988.11
2023-04-07T15:00:58.000Z,988.10
2023-04-07T15:05:53.000Z,988.17
2023-04-07T15:10:47.000Z,988.22
2023-04-07T15:15:41.000Z,988.26
2023-04-07T15:20:35.000Z,988.23
2023-04-07T15:25:30.000Z,988.25
2023-04-07T15:30:24.000Z,988.23
2023-04-07T15:35:19.000Z,988.32
2023-04-07T15:40:13.000Z,988.24
2023-04-07T15:45:07.000Z,988.31
2023-04-07T15:50:02.000Z,988.47
2023-04-07T15:54:56.000Z,988.52
2023-04-07T15:59:50.000Z,988.52
2023-04-07T16:04:44.000Z,988.63
2023-04-07T16:09:39.000Z,988.58
2023-04-07T16:14:33.000Z,988.64
2023-04-07T16:19:28.000Z,988.65
2023-04-07T16:24:22.000Z,988.67
2023-04-07T16:29:16.000Z,988.69
2023-04-07T16:34:11.000Z,988.82
2023-04-07T16:39:04.000Z,988.88
2023-04-07T16:43:59.000Z,988.87
2023-04-07T16:48:56.000Z,988.97
2023-04-07T16:53:48.000Z,988.96
2023-04-07T16:58:42.000Z,989.07
2023-04-07T17:03:35.000Z,989.15
2023-04-07T17:08:29.000Z,989.17
2023-04-07T17:13:23.000Z,989.23
2023-04-07T17:18:18.000Z,989.23
2023-04-07T17:23:09.000Z,989.37
2023-04-07T17:28:03.000Z,989.37
2023-04-07T17:32:58.000Z,989.35
2023-04-07T17:37:52.000Z,989.50
2023-04-07T17:42:46.000Z,989.58
2023-04-07T17:47:40.000Z,989.56
2023-04-07T17:52:34.000Z,989.70
2023-04-07T17:57:29.000Z,989.71
2023-04-07T18:02:23.000Z,989.81
2023-04-07T18:07:17.000Z,989.88
2023-04-07T18:12:11.000Z,989.85
2023-04-07T18:17:04.000Z,989.88
2023-04-07T18:21:58.000Z,989.99
2023-04-07T18:26:52.000Z,990.01
2023-04-07T18:31:48.000Z,990.17
2023-04-07T18:36:40.000Z,990.25
2023-04-07T18:41:34.000Z,990.29
2023-04-07T18:46:29.000Z,990.42
2023-04-07T18:51:22.000Z,990.38
2023-04-07T18:56:16.000Z,990.48
2023-04-07T19:01:10.000Z,990.48
2023-04-07T19:06:03.000Z,990.60
2023-04-07T19:10:57.000Z,990.60
2023-04-07T19:15:52.000Z,990.64
2023-04-07T19:20:46.000Z,990.65
2023-04-07T19:25:39.000Z,990.73
2023-04-07T19:30:34.000Z,990.77
2023-04-07T19:35:27.000Z,990.73
2023-04-07T19:40:21.000Z,990.77
2023-04-07T19:45:15.000Z,990.79
2023-04-07T19:50:09.000Z,990.93
2023-04-07T19:55:03.000Z,990.90
2023-04-07T19:59:55.000Z,991.03
2023-04-07T20:04:49.000Z,991.11
2023-04-07T20:09:43.000Z,991.12
2023-04-07T20:14:37.000Z,991.16
2023-04-07T20:19:31.000Z,991.21
2023-04-07T20:24:25.000Z,991.18
2023-04-07T20:29:19.000Z,991.24
2023-04-07T20:34:13.000Z,991.23
2023-04-07T20:39:07.000Z,991.33
2023-04-07T20:44:01.000Z,991.33
2023-04-07T20:48:55.000Z,991.37
2023-04-07T20:53:49.000Z,991.41
2023-04-07T20:58:43.000Z,991.47
2023-04-07T21:03:37.000Z,991.40
2023-04-07T21:08:30.000Z,991.46
2023-04-07T21:13:24.000Z,991.48
2023-04-07T21:18:19.000Z,991.39
2023-04-07T21:23:12.000Z,991.39
2023-04-07T21:28:05.000Z,991.39
2023-04-07T21:32:59.000Z,991.38
2023-04-07T21:37:54.000Z,991.35
2023-04-07T21:42:48.000Z,991.39
2023-04-07T21:47:42.000Z,991.36
2023-04-07T21:52:36.000Z,991.31
2023-04-07T21:57:30.000Z,991.26
2023-04-07T22:02:23.000Z,991.32
2023-04-07T22:07:16.000Z,991.37
2023-04-07T22:12:11.000Z,991.40
2023-04-07T22:17:05.000Z,991.52
2023-04-07T22:21:59.000Z,991.52
2023-04-07T22:26:54.000Z,991.52
2023-04-07T22:31:48.000Z,991.51
2023-04-07T22:36:42.000Z,991.57
2023-04-07T22:41:34.000Z,991.62
2023-04-07T22:46:28.000Z,991.63
2023-04-07T22:51:22.000Z,991.61
2023-04-07T22:56:17.000Z,991.65
2023-04-07T23:01:11.000Z,991.78
2023-04-07T23:06:05.000Z,991.78
2023-04-07T23:10:59.000Z,991.82
2023-04-07T23:15:54.000Z,991.83
2023-04-07T23:20:48.000Z,991.88
2023-04-07T23:25:41.000Z,991.95
2023-04-07T23:30:35.000Z,991.90
2023-04-07T23:35:30.000Z,991.96
2023-04-07T23:40:24.000Z,992.00
2023-04-07T23:45:17.000Z,992.00
2023-04-07T23:50:11.000Z,992.05
2023-04-07T23:55:06.000Z,992.03
2023-04-07T23:59:54.000Z,992.05
